PWSweather.com
Personal Weather Stations
Station Observations

KentGB

Lat: 51.355058, Lon: 1.256518

Elevation: 24

Station Type: Davis

http://stnichweather.co.uk

High Low Average
Temperature 41.3°F5.2°C 34.1°F1.2°C 37.8°F3.2°C
Dew Point 36.3°F2.4°C 28.6°F-1.9°C 33.0°F0.6°C
Winds 15.0 mph 24.1 kmh 1.2 mph 1.9 kmh 8.0 mph SSE12.9 kmh SSE
Wind Gusts 26.5 mph42.6 kmh 3.5 mph5.6 kmh 14.0 mph22.5 kmh
Humidity 93% 75% 83%
Pressure 29.85 in1010.8 mb 29.53 in1000.0 mb -
Precipitation 0.05 in1.3 mm - -
Hour Temp Dew Point Humidity Winds Wind Gusts Pressure Precip Precip Rate Daily Precip Total
12:00 AM 35.1°F1.7°C 29.6°F-1.3°C 80% 2.3 mph SE3.7 kmh SE 3.5 mph5.6 kmh 29.85 in1010.8 mb - 0.00 in0.0 mm 0.00 in0.0 mm
12:15 AM 34.3°F1.3°C 28.8°F-1.8°C 80% 2.3 mph SSE3.7 kmh SSE 3.5 mph5.6 kmh 29.85 in1010.8 mb - 0.00 in0.0 mm 0.00 in0.0 mm
12:30 AM 34.5°F1.4°C 28.9°F-1.7°C 80% 1.2 mph SE1.9 kmh SE 3.5 mph5.6 kmh 29.85 in1010.8 mb - 0.00 in0.0 mm 0.00 in0.0 mm
12:45 AM 34.1°F1.2°C 28.6°F-1.9°C 80% 2.3 mph SE3.7 kmh SE 4.6 mph7.4 kmh 29.85 in1010.8 mb - 0.00 in0.0 mm 0.00 in0.0 mm
01:00 AM 34.5°F1.4°C 29.0°F-1.7°C 80% 1.2 mph SE1.9 kmh SE 3.5 mph5.6 kmh 29.85 in1010.8 mb - 0.00 in0.0 mm 0.00 in0.0 mm
01:15 AM 34.4°F1.3°C 28.9°F-1.7°C 80% 1.2 mph SSE1.9 kmh SSE 3.5 mph5.6 kmh 29.80 in1009.1 mb - 0.00 in0.0 mm 0.00 in0.0 mm
01:30 AM 35.1°F1.7°C 29.5°F-1.4°C 80% 2.3 mph SSE3.7 kmh SSE 3.5 mph5.6 kmh 29.80 in1009.1 mb - 0.00 in0.0 mm 0.00 in0.0 mm
01:45 AM 35.1°F1.7°C 29.6°F-1.3°C 80% 3.5 mph SSE5.6 kmh SSE 5.8 mph9.3 kmh 29.80 in1009.1 mb - 0.00 in0.0 mm 0.00 in0.0 mm
02:00 AM 35.3°F1.8°C 29.7°F-1.3°C 80% 3.5 mph SSE5.6 kmh SSE 4.6 mph7.4 kmh 29.80 in1009.1 mb - 0.00 in0.0 mm 0.00 in0.0 mm
02:15 AM 36.5°F2.5°C 34.7°F1.5°C 93% 4.6 mph S7.4 kmh S 6.9 mph11.1 kmh 29.77 in1008.1 mb - 0.00 in0.0 mm 0.00 in0.0 mm
02:30 AM 37.1°F2.8°C 35.2°F1.8°C 93% 4.6 mph S7.4 kmh S 6.9 mph11.1 kmh 29.77 in1008.1 mb - 0.00 in0.0 mm 0.00 in0.0 mm
02:45 AM 37.7°F3.2°C 35.9°F2.2°C 93% 5.8 mph S9.3 kmh S 11.5 mph18.5 kmh 29.77 in1008.1 mb - 0.00 in0.0 mm 0.00 in0.0 mm
03:00 AM 38.1°F3.4°C 36.3°F2.4°C 93% 4.6 mph S7.4 kmh S 9.2 mph14.8 kmh 29.77 in1008.1 mb - 0.00 in0.0 mm 0.00 in0.0 mm
03:15 AM 38.5°F3.6°C 32.8°F0.4°C 80% 4.6 mph S7.4 kmh S 6.9 mph11.1 kmh 29.74 in1007.1 mb - 0.00 in0.0 mm 0.00 in0.0 mm
03:30 AM 38.5°F3.6°C 32.9°F0.5°C 80% 5.8 mph S9.3 kmh S 8.1 mph13.0 kmh 29.74 in1007.1 mb - 0.00 in0.0 mm 0.00 in0.0 mm
03:45 AM 38.5°F3.6°C 32.9°F0.5°C 80% 9.2 mph S14.8 kmh S 15.0 mph24.1 kmh 29.74 in1007.1 mb - 0.00 in0.0 mm 0.00 in0.0 mm
04:00 AM 39.0°F3.9°C 33.4°F0.8°C 80% 6.9 mph SSE11.1 kmh SSE 8.1 mph13.0 kmh 29.74 in1007.1 mb - 0.00 in0.0 mm 0.00 in0.0 mm
04:15 AM 39.2°F4.0°C 33.6°F0.9°C 80% 8.1 mph S13.0 kmh S 12.7 mph20.4 kmh 29.71 in1006.1 mb - 0.00 in0.0 mm 0.00 in0.0 mm
04:30 AM 39.1°F3.9°C 33.4°F0.8°C 80% 10.4 mph S16.7 kmh S 20.7 mph33.3 kmh 29.71 in1006.1 mb - 0.00 in0.0 mm 0.00 in0.0 mm
04:45 AM 38.7°F3.7°C 33.0°F0.6°C 80% 6.9 mph SSE11.1 kmh SSE 9.2 mph14.8 kmh 29.68 in1005.1 mb - 0.00 in0.0 mm 0.00 in0.0 mm
05:00 AM 38.5°F3.6°C 32.8°F0.4°C 80% 6.9 mph SSE11.1 kmh SSE 15.0 mph24.1 kmh 29.68 in1005.1 mb - 0.00 in0.0 mm 0.00 in0.0 mm
05:15 AM 38.2°F3.4°C 32.6°F0.3°C 80% 6.9 mph SSE11.1 kmh SSE 11.5 mph18.5 kmh 29.68 in1005.1 mb - 0.00 in0.0 mm 0.00 in0.0 mm
05:30 AM 38.2°F3.4°C 32.6°F0.3°C 80% 9.2 mph SSE14.8 kmh SSE 11.5 mph18.5 kmh 29.68 in1005.1 mb - 0.00 in0.0 mm 0.00 in0.0 mm
05:45 AM 38.3°F3.5°C 32.6°F0.3°C 80% 9.2 mph SSE14.8 kmh SSE 12.7 mph20.4 kmh 29.65 in1004.1 mb - 0.00 in0.0 mm 0.00 in0.0 mm
06:00 AM 38.3°F3.5°C 32.7°F0.4°C 80% 8.1 mph SSE13.0 kmh SSE 15.0 mph24.1 kmh 29.65 in1004.1 mb - 0.00 in0.0 mm 0.00 in0.0 mm
06:15 AM 38.2°F3.4°C 32.5°F0.3°C 80% 8.1 mph SSE13.0 kmh SSE 12.7 mph20.4 kmh 29.65 in1004.1 mb - 0.00 in0.0 mm 0.00 in0.0 mm
06:30 AM 38.1°F3.4°C 32.5°F0.3°C 80% 10.4 mph SSE16.7 kmh SSE 18.4 mph29.6 kmh 29.65 in1004.1 mb - 0.00 in0.0 mm 0.00 in0.0 mm
06:45 AM 38.1°F3.4°C 32.5°F0.3°C 80% 10.4 mph SSE16.7 kmh SSE 16.1 mph25.9 kmh 29.65 in1004.1 mb - 0.00 in0.0 mm 0.00 in0.0 mm
07:00 AM 38.5°F3.6°C 32.9°F0.5°C 80% 11.5 mph SSE18.5 kmh SSE 19.6 mph31.5 kmh 29.65 in1004.1 mb - 0.00 in0.0 mm 0.00 in0.0 mm
07:15 AM 38.5°F3.6°C 32.9°F0.5°C 80% 9.2 mph SSE14.8 kmh SSE 13.8 mph22.2 kmh 29.62 in1003.0 mb - 0.00 in0.0 mm 0.00 in0.0 mm
07:30 AM 38.7°F3.7°C 33.1°F0.6°C 80% 10.4 mph SSE16.7 kmh SSE 18.4 mph29.6 kmh 29.62 in1003.0 mb - 0.00 in0.0 mm 0.00 in0.0 mm
07:45 AM 38.8°F3.8°C 33.2°F0.7°C 80% 11.5 mph SSE18.5 kmh SSE 19.6 mph31.5 kmh 29.62 in1003.0 mb - 0.00 in0.0 mm 0.00 in0.0 mm
08:00 AM 39.0°F3.9°C 33.4°F0.8°C 80% 10.4 mph SSE16.7 kmh SSE 19.6 mph31.5 kmh 29.62 in1003.0 mb - 0.00 in0.0 mm 0.00 in0.0 mm
08:15 AM 39.4°F4.1°C 33.7°F0.9°C 80% 12.7 mph SSE20.4 kmh SSE 17.3 mph27.8 kmh 29.62 in1003.0 mb - 0.00 in0.0 mm 0.00 in0.0 mm
08:30 AM 39.5°F4.2°C 33.8°F1.0°C 80% 12.7 mph SSE20.4 kmh SSE 18.4 mph29.6 kmh 29.62 in1003.0 mb - 0.00 in0.0 mm 0.00 in0.0 mm
08:45 AM 39.6°F4.2°C 33.9°F1.1°C 80% 12.7 mph SSE20.4 kmh SSE 16.1 mph25.9 kmh 29.59 in1002.0 mb - 0.00 in0.0 mm 0.00 in0.0 mm
09:00 AM 39.7°F4.3°C 34.0°F1.1°C 80% 12.7 mph SSE20.4 kmh SSE 21.9 mph35.2 kmh 29.59 in1002.0 mb - 0.00 in0.0 mm 0.00 in0.0 mm
09:15 AM 40.4°F4.7°C 34.7°F1.5°C 80% 12.7 mph SSE20.4 kmh SSE 19.6 mph31.5 kmh 29.59 in1002.0 mb - 0.00 in0.0 mm 0.00 in0.0 mm
09:30 AM 40.3°F4.6°C 34.6°F1.4°C 80% 12.7 mph SSE20.4 kmh SSE 21.9 mph35.2 kmh 29.59 in1002.0 mb - 0.00 in0.0 mm 0.00 in0.0 mm
09:45 AM 40.7°F4.8°C 35.0°F1.7°C 80% 10.4 mph SSE16.7 kmh SSE 20.7 mph33.3 kmh 29.59 in1002.0 mb - 0.00 in0.0 mm 0.00 in0.0 mm
10:00 AM 40.8°F4.9°C 35.1°F1.7°C 80% 12.7 mph SSE20.4 kmh SSE 20.7 mph33.3 kmh 29.59 in1002.0 mb - 0.00 in0.0 mm 0.00 in0.0 mm
10:15 AM 41.0°F5.0°C 33.7°F0.9°C 75% 13.8 mph SSE22.2 kmh SSE 19.6 mph31.5 kmh 29.56 in1001.0 mb - 0.00 in0.0 mm 0.00 in0.0 mm
10:30 AM 40.8°F4.9°C 33.5°F0.8°C 75% 13.8 mph SSE22.2 kmh SSE 26.5 mph42.6 kmh 29.56 in1001.0 mb - 0.00 in0.0 mm 0.00 in0.0 mm
10:45 AM 41.0°F5.0°C 35.3°F1.8°C 80% 15.0 mph SSE24.1 kmh SSE 19.6 mph31.5 kmh 29.56 in1001.0 mb - 0.00 in0.0 mm 0.00 in0.0 mm
11:00 AM 41.1°F5.1°C 35.4°F1.9°C 80% 15.0 mph SSE24.1 kmh SSE 24.2 mph38.9 kmh 29.56 in1001.0 mb - 0.00 in0.0 mm 0.00 in0.0 mm
11:15 AM 41.3°F5.2°C 34.0°F1.1°C 75% 15.0 mph SSE24.1 kmh SSE 25.3 mph40.7 kmh 29.56 in1001.0 mb - 0.00 in0.0 mm 0.00 in0.0 mm
11:30 AM 41.0°F5.0°C 33.7°F0.9°C 75% 12.7 mph SSE20.4 kmh SSE 19.6 mph31.5 kmh 29.56 in1001.0 mb - 0.00 in0.0 mm 0.00 in0.0 mm
11:45 AM 40.8°F4.9°C 33.5°F0.8°C 75% 12.7 mph SSE20.4 kmh SSE 19.6 mph31.5 kmh 29.56 in1001.0 mb - 0.00 in0.0 mm 0.00 in0.0 mm
12:00 PM 40.4°F4.7°C 33.1°F0.6°C 75% 12.7 mph SSE20.4 kmh SSE 20.7 mph33.3 kmh 29.56 in1001.0 mb - 0.00 in0.0 mm 0.00 in0.0 mm
12:15 PM 40.3°F4.6°C 33.0°F0.6°C 75% 15.0 mph SSE24.1 kmh SSE 17.3 mph27.8 kmh 29.53 in1000.0 mb - 0.00 in0.0 mm 0.00 in0.0 mm
12:30 PM 40.4°F4.7°C 33.1°F0.6°C 75% 13.8 mph SSE22.2 kmh SSE 21.9 mph35.2 kmh 29.53 in1000.0 mb - 0.00 in0.0 mm 0.00 in0.0 mm
12:45 PM 40.4°F4.7°C 33.1°F0.6°C 75% 15.0 mph SSE24.1 kmh SSE 26.5 mph42.6 kmh 29.53 in1000.0 mb - 0.00 in0.0 mm 0.00 in0.0 mm
01:00 PM 39.3°F4.1°C 32.0°F0.0°C 75% 15.0 mph SSE24.1 kmh SSE 24.2 mph38.9 kmh 29.53 in1000.0 mb - 0.01 in0.3 mm 0.01 in0.3 mm
01:15 PM 37.9°F3.3°C 30.7°F-0.7°C 75% 15.0 mph SSE24.1 kmh SSE 23.0 mph37.0 kmh 29.53 in1000.0 mb - 0.01 in0.3 mm 0.02 in0.5 mm
01:30 PM 37.8°F3.2°C 30.6°F-0.8°C 75% 15.0 mph SSE24.1 kmh SSE 23.0 mph37.0 kmh 29.53 in1000.0 mb - 0.00 in0.0 mm 0.02 in0.5 mm
01:45 PM 38.2°F3.4°C 32.5°F0.3°C 80% 13.8 mph SSE22.2 kmh SSE 19.6 mph31.5 kmh 29.53 in1000.0 mb - 0.00 in0.0 mm 0.02 in0.5 mm
02:00 PM 38.3°F3.5°C 32.6°F0.3°C 80% 15.0 mph SSE24.1 kmh SSE 19.6 mph31.5 kmh 29.53 in1000.0 mb - 0.00 in0.0 mm 0.02 in0.5 mm
02:15 PM 38.1°F3.4°C 32.5°F0.3°C 80% 13.8 mph SSE22.2 kmh SSE 23.0 mph37.0 kmh 29.53 in1000.0 mb - 0.00 in0.0 mm 0.02 in0.5 mm
02:30 PM 38.3°F3.5°C 32.7°F0.4°C 80% 13.8 mph SSE22.2 kmh SSE 18.4 mph29.6 kmh 29.53 in1000.0 mb - 0.00 in0.0 mm 0.02 in0.5 mm
02:45 PM 38.4°F3.6°C 34.6°F1.4°C 86% 11.5 mph SSE18.5 kmh SSE 20.7 mph33.3 kmh 29.53 in1000.0 mb - 0.00 in0.0 mm 0.02 in0.5 mm
03:00 PM 38.3°F3.5°C 34.5°F1.4°C 86% 13.8 mph SSE22.2 kmh SSE 26.5 mph42.6 kmh 29.53 in1000.0 mb - 0.00 in0.0 mm 0.02 in0.5 mm
03:15 PM 38.1°F3.4°C 34.3°F1.3°C 86% 15.0 mph SSE24.1 kmh SSE 20.7 mph33.3 kmh 29.53 in1000.0 mb - 0.00 in0.0 mm 0.02 in0.5 mm
03:30 PM 37.7°F3.2°C 33.9°F1.1°C 86% 10.4 mph SSE16.7 kmh SSE 15.0 mph24.1 kmh 29.53 in1000.0 mb - 0.00 in0.0 mm 0.02 in0.5 mm
03:45 PM 37.3°F2.9°C 33.5°F0.8°C 86% 10.4 mph SE16.7 kmh SE 16.1 mph25.9 kmh 29.53 in1000.0 mb - 0.00 in0.0 mm 0.02 in0.5 mm
04:00 PM 37.3°F2.9°C 33.5°F0.8°C 86% 9.2 mph SSE14.8 kmh SSE 12.7 mph20.4 kmh 29.53 in1000.0 mb - 0.01 in0.3 mm 0.03 in0.8 mm
04:15 PM 37.3°F2.9°C 33.5°F0.8°C 86% 8.1 mph SE13.0 kmh SE 15.0 mph24.1 kmh 29.53 in1000.0 mb - 0.00 in0.0 mm 0.03 in0.8 mm
04:30 PM 37.3°F2.9°C 33.5°F0.8°C 86% 10.4 mph SSE16.7 kmh SSE 18.4 mph29.6 kmh 29.53 in1000.0 mb - 0.00 in0.0 mm 0.03 in0.8 mm
04:45 PM 37.3°F2.9°C 33.5°F0.8°C 86% 8.1 mph SSE13.0 kmh SSE 13.8 mph22.2 kmh 29.53 in1000.0 mb - 0.00 in0.0 mm 0.03 in0.8 mm
05:00 PM 37.0°F2.8°C 33.2°F0.7°C 86% 8.1 mph SE13.0 kmh SE 15.0 mph24.1 kmh 29.53 in1000.0 mb - 0.00 in0.0 mm 0.03 in0.8 mm
05:15 PM 36.6°F2.6°C 31.0°F-0.6°C 80% 9.2 mph SE14.8 kmh SE 19.6 mph31.5 kmh 29.56 in1001.0 mb - 0.00 in0.0 mm 0.03 in0.8 mm
05:30 PM 36.4°F2.4°C 30.8°F-0.7°C 80% 9.2 mph SE14.8 kmh SE 17.3 mph27.8 kmh 29.56 in1001.0 mb - 0.00 in0.0 mm 0.03 in0.8 mm
05:45 PM 36.4°F2.4°C 32.6°F0.3°C 86% 8.1 mph SE13.0 kmh SE 17.3 mph27.8 kmh 29.56 in1001.0 mb - 0.00 in0.0 mm 0.03 in0.8 mm
06:00 PM 36.5°F2.5°C 32.7°F0.4°C 86% 8.1 mph SSE13.0 kmh SSE 15.0 mph24.1 kmh 29.56 in1001.0 mb - 0.00 in0.0 mm 0.03 in0.8 mm
06:15 PM 36.3°F2.4°C 32.5°F0.3°C 86% 6.9 mph SE11.1 kmh SE 19.6 mph31.5 kmh 29.59 in1002.0 mb - 0.01 in0.3 mm 0.04 in1.0 mm
06:30 PM 36.3°F2.4°C 32.5°F0.3°C 86% 8.1 mph SE13.0 kmh SE 13.8 mph22.2 kmh 29.59 in1002.0 mb - 0.00 in0.0 mm 0.04 in1.0 mm
06:45 PM 36.3°F2.4°C 34.5°F1.4°C 93% 5.8 mph SE9.3 kmh SE 12.7 mph20.4 kmh 29.59 in1002.0 mb - 0.00 in0.0 mm 0.04 in1.0 mm
07:00 PM 36.4°F2.4°C 34.5°F1.4°C 93% 5.8 mph SE9.3 kmh SE 11.5 mph18.5 kmh 29.59 in1002.0 mb - 0.00 in0.0 mm 0.04 in1.0 mm
07:15 PM 36.3°F2.4°C 32.6°F0.3°C 86% 5.8 mph SE9.3 kmh SE 11.5 mph18.5 kmh 29.62 in1003.0 mb - 0.00 in0.0 mm 0.04 in1.0 mm
07:30 PM 36.3°F2.4°C 32.5°F0.3°C 86% 4.6 mph SE7.4 kmh SE 10.4 mph16.7 kmh 29.62 in1003.0 mb - 0.00 in0.0 mm 0.04 in1.0 mm
07:45 PM 36.3°F2.4°C 32.5°F0.3°C 86% 5.8 mph SE9.3 kmh SE 11.5 mph18.5 kmh 29.62 in1003.0 mb - 0.00 in0.0 mm 0.04 in1.0 mm
08:00 PM 36.2°F2.3°C 32.4°F0.2°C 86% 6.9 mph SE11.1 kmh SE 11.5 mph18.5 kmh 29.62 in1003.0 mb - 0.00 in0.0 mm 0.04 in1.0 mm
08:15 PM 36.1°F2.3°C 32.3°F0.2°C 86% 6.9 mph SE11.1 kmh SE 11.5 mph18.5 kmh 29.62 in1003.0 mb - 0.00 in0.0 mm 0.04 in1.0 mm
08:30 PM 35.9°F2.2°C 32.1°F0.1°C 86% 5.8 mph SE9.3 kmh SE 10.4 mph16.7 kmh 29.62 in1003.0 mb - 0.00 in0.0 mm 0.04 in1.0 mm
08:45 PM 35.7°F2.1°C 32.0°F0.0°C 86% 3.5 mph SE5.6 kmh SE 6.9 mph11.1 kmh 29.65 in1004.1 mb - 0.00 in0.0 mm 0.04 in1.0 mm
09:00 PM 35.8°F2.1°C 32.0°F0.0°C 86% 4.6 mph SE7.4 kmh SE 6.9 mph11.1 kmh 29.65 in1004.1 mb - 0.01 in0.3 mm 0.05 in1.3 mm
09:15 PM 35.7°F2.1°C 33.9°F1.1°C 93% 3.5 mph SE5.6 kmh SE 9.2 mph14.8 kmh 29.65 in1004.1 mb - 0.00 in0.0 mm 0.05 in1.3 mm
09:30 PM 35.9°F2.2°C 34.1°F1.2°C 93% 3.5 mph SE5.6 kmh SE 5.8 mph9.3 kmh 29.65 in1004.1 mb - 0.00 in0.0 mm 0.05 in1.3 mm
09:45 PM 35.9°F2.2°C 34.1°F1.2°C 93% 3.5 mph SE5.6 kmh SE 8.1 mph13.0 kmh 29.65 in1004.1 mb - 0.00 in0.0 mm 0.05 in1.3 mm
10:00 PM 36.1°F2.3°C 34.3°F1.3°C 93% 3.5 mph SE5.6 kmh SE 8.1 mph13.0 kmh 29.65 in1004.1 mb - 0.00 in0.0 mm 0.05 in1.3 mm
10:15 PM 36.2°F2.3°C 34.4°F1.3°C 93% 4.6 mph SE7.4 kmh SE 6.9 mph11.1 kmh 29.68 in1005.1 mb - 0.00 in0.0 mm 0.05 in1.3 mm
10:30 PM 36.3°F2.4°C 34.5°F1.4°C 93% 2.3 mph SE3.7 kmh SE 8.1 mph13.0 kmh 29.68 in1005.1 mb - 0.00 in0.0 mm 0.05 in1.3 mm
10:45 PM 36.5°F2.5°C 34.6°F1.4°C 93% 2.3 mph SSE3.7 kmh SSE 4.6 mph7.4 kmh 29.68 in1005.1 mb - 0.00 in0.0 mm 0.05 in1.3 mm
11:00 PM 36.5°F2.5°C 34.7°F1.5°C 93% 2.3 mph SE3.7 kmh SE 3.5 mph5.6 kmh 29.68 in1005.1 mb - 0.00 in0.0 mm 0.05 in1.3 mm
11:15 PM 36.6°F2.6°C 32.8°F0.4°C 86% 1.2 mph SE1.9 kmh SE 3.5 mph5.6 kmh 29.68 in1005.1 mb - 0.00 in0.0 mm 0.05 in1.3 mm
11:30 PM 36.7°F2.6°C 32.9°F0.5°C 86% 2.3 mph SE3.7 kmh SE 3.5 mph5.6 kmh 29.68 in1005.1 mb - 0.00 in0.0 mm 0.05 in1.3 mm
11:45 PM 36.8°F2.7°C 34.9°F1.6°C 93% 2.3 mph SE3.7 kmh SE 4.6 mph7.4 kmh 29.71 in1006.1 mb - 0.00 in0.0 mm 0.05 in1.3 mm